Weather reports worldwide

Advertisment
Schmücke, Germany (10552): temperature & dewpoint: 20.09.2018 17:00:00 - 26.09.2018 17:00:00 (CEST)Schmücke, Germany (10552): temperature 5cm & temperature -5cm: 20.09.2018 17:00:00 - 26.09.2018 17:00:00 (CEST)Schmücke, Germany (10552): temperature -20cm & temperature -100cm: 20.09.2018 17:00:00 - 26.09.2018 17:00:00 (CEST)Schmücke, Germany (10552): wind speed & gusts: 20.09.2018 17:00:00 - 26.09.2018 17:00:00 (CEST)Schmücke, Germany (10552): wind direction: 20.09.2018 17:00:00 - 26.09.2018 17:00:00 (CEST)Schmücke, Germany (10552): visibility: 20.09.2018 17:00:00 - 26.09.2018 17:00:00 (CEST)Schmücke, Germany (10552): sunshine duration: 20.09.2018 17:00:00 - 26.09.2018 17:00:00 (CEST)Schmücke, Germany (10552): precipitation: 20.09.2018 17:00:00 - 26.09.2018 17:00:00 (CEST)
Date & Time tt [°C] td [°C] tt 5cm [°C] tt -5cm [°C] tt -20cm [°C] tt -100cm [°C] ff [km/h] ff [kn] fx [km/h] fx [kn] dd vv [km] sd [min] rr [mm]
26.09.2018 17:00:00 9,1 -1,9 9,3 11,0 9,0 13,6 27 15 42 23 SW 55 54 0,0
26.09.2018 16:00:00 8,9 -1,8 9,9 11,2 8,6 13,6 26 14 41 22 SW 62 42 0,0
26.09.2018 15:00:00 8,7 -1,1 9,9 11,1 8,1 13,7 29 16 45 25 SW 50 29 0,0
26.09.2018 14:00:00 8,2 -2,5 9,5 11,0 7,5 13,7 31 17 45 24 SW 71 58 0,0
26.09.2018 13:00:00 8,0 -1,0 10,1 9,6 7,0 13,7 23 13 45 25 SW 75 59 0,0
26.09.2018 12:00:00 6,6 -1,5 7,6 7,8 6,6 13,7 28 15 44 24 SW 57 60 0,0
26.09.2018 11:00:00 5,7 -2,0 7,8 5,2 6,4 13,7 28 15 46 25 SSW 45 60 0,0
26.09.2018 10:00:00 4,5 -2,7 5,8 3,1 6,4 13,8 31 17 47 25 SSW 69 60 0,0
26.09.2018 09:00:00 3,3 -3,3 2,3 2,4 6,5 13,8 29 16 44 24 SSW 63 52 0,0
26.09.2018 08:00:00 3,0 -3,6 1,7 2,2 6,7 13,8 24 13 36 19 SSW 63 19 0,0
26.09.2018 07:00:00 2,7 -3,2 1,2 2,2 6,9 13,8 24 13 41 22 SSW 59 0 0,0
26.09.2018 06:00:00 3,0 -3,4 1,3 2,3 7,1 13,8 24 13 41 22 SSW 57 0 0,0
26.09.2018 05:00:00 2,6 -3,2 0,6 2,3 7,3 13,9 23 13 32 17 SSW 56 0 0,0
26.09.2018 04:00:00 2,7 -3,4 0,4 2,6 7,6 13,9 15 8 28 15 S 63 0 0,0
26.09.2018 03:00:00 2,9 -3,4 0,8 2,9 7,9 13,9 14 8 27 15 S 57 0 0,0
26.09.2018 02:00:00 3,1 -2,6 1,3 3,3 8,2 13,9 15 8 24 13 SSE 55 0 0,0
26.09.2018 01:00:00 3,0 -2,0 0,3 3,6 8,5 14,0 11 6 19 10 SSE 70 0 0,0
26.09.2018 00:00:00 2,5 -1,3 -0,6 4,1 8,8 14,0 9 5 13 7 SE 70 0 0,0
25.09.2018 23:00:00 2,2 -0,7 -0,6 4,6 9,1 14,0 8 4 11 6 SE 63 0 0,0
25.09.2018 22:00:00 2,4 -0,2 0,4 5,2 9,4 14,0 8 4 11 6 E 57 0 0,0
25.09.2018 21:00:00 2,6 -0,6 0,4 6,0 9,7 14,1 7 4 12 6 NNE 65 0 0,0
25.09.2018 20:00:00 2,9 -0,8 0,9 7,1 9,9 14,1 9 5 12 6 N 65 0 0,0
25.09.2018 19:00:00 4,0 -0,3 2,2 8,6 9,9 14,1 7 4 11 6 NNE 58 53 0,0
25.09.2018 18:00:00 6,0 0,0 5,3 10,2 9,8 14,1 6 3 14 8 NNE 65 43 0,0
25.09.2018 17:00:00 5,9 -0,8 6,4 10,4 9,5 14,1 5 3 18 10 N 65 19 0,0
25.09.2018 16:00:00 6,8 -0,9 10,2 11,2 9,2 14,2 9 5 21 11 NNE 60 24 0,0
25.09.2018 15:00:00 6,4 0,3 7,0 11,4 8,7 14,2 7 4 24 13 NNW 47 25 0,0
25.09.2018 14:00:00 5,9 0,3 6,6 11,1 8,2 14,2 9 5 23 13 N 71 30 0,0
25.09.2018 13:00:00 5,9 0,8 9,8 9,4 7,7 14,2 9 5 20 11 N 72 28 0,0
25.09.2018 12:00:00 5,0 0,9 7,7 7,3 7,5 14,2 8 4 22 12 NNE 47 20 0,0
25.09.2018 11:00:00 3,9 1,0 5,5 5,6 7,3 14,3 8 5 25 13 N 40 16 0,0
25.09.2018 10:00:00 3,6 1,7 3,9 4,2 7,4 14,3 7 4 24 13 N 43 48 0,0
25.09.2018 09:00:00 2,4 1,3 1,6 3,5 7,5 14,3 10 5 23 12 NNW 33 58 0,0
25.09.2018 08:00:00 1,2 0,5 0,5 3,0 7,7 14,3 8 5 18 10 NNW 18 27 0,0
25.09.2018 07:00:00 1,0 0,4 0,5 3,1 7,9 14,3 7 4 19 11 WNW 9 0 0,0
25.09.2018 06:00:00 0,8 0,0 -0,1 3,3 8,1 14,4 8 4 22 12 NW 13 0 0,0
25.09.2018 05:00:00 1,0 0,3 0,2 3,8 8,3 14,4 9 5 21 11 WNW 13 0 0,0
25.09.2018 04:00:00 1,5 0,8 0,9 3,9 8,6 14,4 9 5 23 13 NW 14 0 0,0
25.09.2018 03:00:00 1,3 0,5 0,6 4,0 8,9 14,4 9 5 22 12 NNW 34 0 0,0
25.09.2018 02:00:00 1,1 0,3 0,1 4,3 9,2 14,4 9 5 22 12 NW 25 0 0,0
25.09.2018 01:00:00 1,5 0,6 0,5 4,9 9,4 14,5 9 5 22 12 NW 27 0 0,0
25.09.2018 00:00:00 2,1 1,2 1,6 5,6 9,7 14,5 11 6 22 12 NW 37 0 0,0
24.09.2018 23:00:00 2,6 1,7 1,8 6,2 9,9 14,5 10 5 26 14 NW 25 0 0,0
24.09.2018 22:00:00 2,9 2,0 2,7 6,4 10,1 14,5 11 6 32 18 NW 38 0 0,0
24.09.2018 21:00:00 2,9 1,9 2,7 6,6 10,4 14,6 13 7 33 18 NW 54 0 0,1
24.09.2018 20:00:00 2,7 1,8 2,3 7,4 10,6 14,6 12 7 37 20 NW 41 0 0,5
24.09.2018 19:00:00 3,5 2,3 3,3 8,5 10,8 14,6 9 5 36 19 NW 49 0 1,2
24.09.2018 18:00:00 5,0 1,8 4,8 9,6 10,8 14,6 20 11 39 21 W 59 5 0,0
24.09.2018 17:00:00 6,0 2,1 6,0 10,8 10,7 14,6 22 12 39 21 W 60 37 0,0
24.09.2018 16:00:00 5,1 2,6 5,0 11,1 10,4 14,7 19 10 39 21 W 51 26 0,0
24.09.2018 15:00:00 5,4 4,0 7,4 11,3 10,1 14,7 23 12 40 21 W 37 23 0,9
24.09.2018 14:00:00 5,7 3,8 8,0 11,6 9,7 14,7 16 8 43 23 W 40 36 0,5
24.09.2018 13:00:00 5,7 2,8 8,9 10,7 9,4 14,7 21 12 45 24 W 50 34 0,0
24.09.2018 12:00:00 4,6 2,3 5,8 9,4 9,1 14,7 16 9 42 23 WNW 49 34 0,0
24.09.2018 11:00:00 3,9 2,4 5,7 7,9 9,0 14,7 16 9 42 23 WNW 42 25 0,0
24.09.2018 10:00:00 3,2 2,4 4,5 6,6 9,0 14,8 18 10 36 19 W 19 6 0,3
24.09.2018 09:00:00 2,9 2,2 3,4 5,9 9,1 14,8 16 9 39 21 W 21 8 0,1
24.09.2018 08:00:00 2,5 1,8 2,6 5,4 9,2 14,8 16 9 40 22 W 6 0 0,1
24.09.2018 07:00:00 2,5 1,8 2,3 5,4 9,3 14,8 16 9 38 20 W 10 0 0,0
24.09.2018 06:00:00 2,6 1,7 2,5 5,5 9,5 14,8 19 10 36 19 W 24 0 0,0
24.09.2018 05:00:00 2,5 1,6 2,2 5,5 9,7 14,9 18 10 35 19 W 19 0 0,0
24.09.2018 04:00:00 2,7 2,0 2,6 5,9 9,9 14,9 14 8 37 20 WNW 19 0 0,0
24.09.2018 03:00:00 2,8 2,0 2,7 6,1 10,1 14,9 18 10 37 20 WNW 32 0 0,0
24.09.2018 02:00:00 2,7 2,2 2,7 6,1 10,3 14,9 18 10 36 19 WNW 11 0 0,0
24.09.2018 01:00:00 2,3 1,6 2,1 6,3 10,6 14,9 14 8 41 22 NW 31 0 0,0
24.09.2018 00:00:00 2,6 2,1 2,6 6,8 10,9 14,9 16 8 40 22 NNW 1,8 0 0,3
23.09.2018 23:00:00 2,6 2,0 2,5 7,3 11,1 15,0 18 10 46 25 N 6 0 0,9
23.09.2018 22:00:00 3,5 2,8 3,4 8,1 11,3 15,0 21 11 51 28 NNW 13 0 0,9
23.09.2018 21:00:00 4,8 4,3 4,7 8,9 11,5 15,0 25 14 46 25 N 0,5 0 1,4
23.09.2018 20:00:00 6,4 6,0 6,3 9,7 11,6 15,0 17 9 39 21 N 0,6 0 1,3
23.09.2018 19:00:00 7,5 7,2 7,4 10,4 11,6 15,0 12 7 27 14 N 0,2 0 0,5
23.09.2018 18:00:00 8,0 7,5 7,8 11,0 11,4 15,0 13 7 97 52 NNE 0,6 0 10,6
23.09.2018 17:00:00 13,9 13,6 13,9 11,8 11,2 15,0 63 34 96 52 SW 0,2 0 0,4
23.09.2018 16:00:00 13,0 12,7 13,0 10,9 11,1 15,1 51 27 81 44 SW 0,1 0 1,2
23.09.2018 15:00:00 10,5 10,2 10,6 10,2 11,0 15,1 32 17 56 30 SSW 0,2 0 4,2
23.09.2018 14:00:00 9,4 9,1 9,6 10,0 10,9 15,1 26 14 42 23 SW 0,2 0 2,1
23.09.2018 13:00:00 8,6 8,3 9,0 9,6 10,9 15,1 23 12 39 21 SW 0,2 0 1,4
23.09.2018 12:00:00 7,7 7,4 8,2 9,2 10,9 15,1 22 12 36 19 SW 0,1 0 2,3
23.09.2018 11:00:00 6,9 6,6 7,3 8,8 10,9 15,1 18 10 31 17 SW 0,1 0 1,1
23.09.2018 10:00:00 6,4 6,1 6,7 8,4 11,0 15,1 22 12 38 20 SSW 0,1 0 1,6
23.09.2018 09:00:00 5,9 5,5 6,1 8,1 11,1 15,1 18 10 32 18 SSW 0,2 0 0,8
23.09.2018 08:00:00 5,5 5,1 5,7 8,0 11,2 15,1 13 7 36 19 SSW 0,1 0 1,9
23.09.2018 07:00:00 5,5 5,1 5,7 8,1 11,4 15,2 21 11 38 21 SSW 0,1 0 0,5
23.09.2018 06:00:00 5,5 5,1 5,7 8,2 11,5 15,2 24 13 41 22 SW 0,1 0 0,4
23.09.2018 05:00:00 5,4 5,0 5,6 8,2 11,7 15,2 25 14 45 24 SW 0,1 0 0,7
23.09.2018 04:00:00 5,3 4,9 5,5 8,5 11,9 15,2 23 13 38 21 SW 0,1 0 0,2
23.09.2018 03:00:00 5,3 4,9 5,6 8,7 12,0 15,2 17 9 29 16 SW 0,1 0 0,1
23.09.2018 02:00:00 5,4 5,0 5,7 8,8 12,2 15,2 18 10 29 16 WSW 0,2 0 0,2
23.09.2018 01:00:00 5,7 5,3 6,0 9,0 12,4 15,2 15 8 29 16 WSW 0,1 0 0,2
23.09.2018 00:00:00 6,0 5,6 6,2 9,2 12,6 15,2 14 8 27 14 WSW 0,1 0 0,5
22.09.2018 23:00:00 6,0 5,5 6,2 9,3 12,8 15,2 16 9 38 21 W 0,6 0 0,5
22.09.2018 22:00:00 6,2 5,3 6,2 9,6 13,0 15,2 19 10 34 19 WSW 31 0 0,1
22.09.2018 21:00:00 6,1 5,2 6,1 9,9 13,2 15,2 18 10 32 17 WSW 15 0 0,2
22.09.2018 20:00:00 5,9 5,0 6,0 10,5 13,4 15,2 19 10 29 16 SW 32 0 1,5
22.09.2018 19:00:00 6,5 4,9 6,4 11,3 13,5 15,2 13 7 39 21 SW 44 0 0,2
22.09.2018 18:00:00 8,7 2,9 8,7 12,3 13,5 15,3 22 12 39 21 SW 50 0 0,0
22.09.2018 17:00:00 9,4 2,4 9,9 13,4 13,4 15,3 20 11 38 20 SW 58 0 0,0
22.09.2018 16:00:00 9,4 2,8 9,9 14,3 13,0 15,3 24 13 45 24 SW 52 0 0,0
22.09.2018 15:00:00 10,0 2,9 11,5 15,1 12,6 15,3 25 13 53 29 SW 53 31 0,0
22.09.2018 14:00:00 9,6 3,7 11,6 13,6 12,2 15,3 34 18 58 31 SW 61 47 0,0
22.09.2018 13:00:00 8,9 4,6 11,0 12,1 12,0 15,3 31 17 55 30 SW 40 19 0,0
22.09.2018 12:00:00 7,5 4,8 9,1 10,5 11,9 15,3 23 12 44 24 SW 38 11 0,0
22.09.2018 11:00:00 6,4 4,5 7,5 9,1 11,9 15,2 21 11 38 21 WSW 41 4 0,0
22.09.2018 10:00:00 5,1 3,8 5,4 8,4 12,0 15,2 22 12 37 20 WSW 27 0 0,0
22.09.2018 09:00:00 4,7 3,6 4,9 8,0 12,1 15,2 18 10 34 18 SW 19 0 0,0
22.09.2018 08:00:00 4,6 3,6 4,7 7,7 12,3 15,2 21 11 38 21 WSW 28 0 0,0
22.09.2018 07:00:00 4,5 3,5 4,5 7,6 12,5 15,2 27 14 45 24 WSW 29 0 0,0
22.09.2018 06:00:00 4,4 3,4 4,4 7,6 12,8 15,2 28 15 39 21 WSW 32 0 0,0
22.09.2018 05:00:00 4,4 3,4 4,3 7,6 13,1 15,2 26 14 43 23 WSW 30 0 0,0
22.09.2018 04:00:00 4,1 3,2 4,0 7,3 13,5 15,2 28 15 46 25 WSW 35 0 0,0
22.09.2018 03:00:00 4,1 3,2 3,1 7,6 14,0 15,2 27 15 44 24 WSW 40 0 0,0
22.09.2018 02:00:00 4,5 3,3 3,7 8,3 14,4 15,2 29 16 45 25 WSW 45 0 0,0
22.09.2018 01:00:00 4,9 4,1 4,3 9,0 14,8 15,2 27 15 45 24 WSW 32 0 0,0
22.09.2018 00:00:00 5,4 4,8 5,2 9,9 15,2 15,2 27 15 40 22 WSW 23 0 0,0
21.09.2018 23:00:00 5,8 5,3 5,7 10,6 15,7 15,2 22 12 36 20 WSW 3,4 0 0,0
21.09.2018 22:00:00 6,2 5,7 6,1 11,3 16,1 15,2 24 13 42 23 WSW 11 0 0,0
21.09.2018 21:00:00 6,6 6,0 6,6 12,1 16,5 15,2 28 15 42 23 W 9 0 0,0
21.09.2018 20:00:00 7,3 6,8 7,7 12,9 16,9 15,2 21 11 41 22 WSW 0,5 0 0,1
21.09.2018 19:00:00 7,8 7,4 8,1 13,6 17,3 15,2 27 14 47 26 W 0,7 0 2,8
21.09.2018 18:00:00 8,1 7,2 8,3 14,9 17,6 15,2 25 13 71 38 W 2,3 0 3,6
21.09.2018 17:00:00 15,0 9,5 13,5 17,1 17,7 15,2 45 24 84 45 SW 59 0 0,6
21.09.2018 16:00:00 17,7 8,5 17,6 18,9 17,5 15,2 43 23 80 43 SW 46 0 0,0
21.09.2018 15:00:00 18,4 9,3 18,8 19,6 17,3 15,1 45 25 86 46 SW 51 5 0,0
21.09.2018 14:00:00 18,8 11,3 20,1 19,7 17,0 15,1 44 24 78 42 SW 36 23 0,0
21.09.2018 13:00:00 18,6 11,9 19,1 18,8 16,7 15,1 46 25 83 45 SW 47 11 0,0
21.09.2018 12:00:00 18,7 11,4 20,6 18,0 16,5 15,1 42 23 75 40 SW 31 16 0,0
21.09.2018 11:00:00 18,0 11,4 20,7 17,0 16,3 15,1 28 15 54 29 SSW 37 45 0,0
21.09.2018 10:00:00 17,0 11,2 18,8 14,9 16,4 15,1 27 15 52 28 SSW 41 53 0,0
21.09.2018 09:00:00 14,8 10,4 13,8 14,3 16,5 15,1 24 13 48 26 SW 42 0 0,0
21.09.2018 08:00:00 14,7 10,4 13,9 14,4 16,7 15,1 28 15 50 27 SW 35 19 0,0
21.09.2018 07:00:00 14,8 10,5 13,6 14,6 16,9 15,1 31 17 51 28 SW 35 0 0,0
21.09.2018 06:00:00 15,6 10,4 14,6 14,9 17,1 15,1 23 12 57 31 SW 44 0 0,0
21.09.2018 05:00:00 16,7 10,1 15,6 15,2 17,2 15,1 27 15 55 30 SSW 51 0 0,0
21.09.2018 04:00:00 16,8 10,3 15,9 15,3 17,5 15,1 29 15 54 29 SSW 45 0 0,0
21.09.2018 03:00:00 16,8 10,2 15,4 15,4 17,7 15,1 26 14 46 25 SSW 43 0 0,0
21.09.2018 02:00:00 17,5 7,6 16,3 15,6 18,0 15,0 24 13 46 25 SSW 56 0 0,0
21.09.2018 01:00:00 17,3 7,3 15,6 16,0 18,3 15,0 28 15 49 26 SW 50 0 0,0
21.09.2018 00:00:00 17,6 7,7 16,2 16,3 18,6 15,0 29 16 47 25 SW 53 0 0,0
20.09.2018 23:00:00 17,7 7,3 15,6 16,8 18,9 15,0 26 14 41 22 SW 52 0 0,0
20.09.2018 22:00:00 17,7 6,9 15,6 17,6 19,2 15,0 22 12 34 18 SW 53 0 0,0
20.09.2018 21:00:00 17,9 8,0 15,8 18,7 19,5 15,0 16 9 28 15 SW 55 0 0,0
20.09.2018 20:00:00 18,9 9,9 16,9 19,9 19,6 15,0 14 8 32 18 SW 52 0 0,0
20.09.2018 19:00:00 20,3 9,6 19,0 21,7 19,6 15,0 19 10 40 21 SW 51 45 0,0
20.09.2018 18:00:00 21,6 10,1 22,1 23,2 19,4 15,0 23 13 45 24 SW 52 59 0,0
20.09.2018 17:00:00 21,8 10,8 22,6 23,9 19,0 15,0 26 14 49 26 SW 38 54 0,0

tt = temperature
td = dewpoint
tt 5cm = temperature 5cm
tt -5cm = temperature -5cm
tt -20cm = temperature -20cm
tt -100cm = temperature -100cm
ff = wind speed
fx = gusts
dd = wind direction
vv = visibility
sd = sunshine duration
rr = precipitation

Next stations